Terminal Aerodrome Forecast
Issued by NWS Cheyenne, WY

Home | Current Version | Previous Version | Text Only | Print | Product List | Glossary On
Versions: 1 2 3 4 5 6 7 8 9 10 11 12 13 14 15 16 17 18
000
FTUS45 KCYS 161743
TAFCYS
TAF
KCYS 161743Z 1618/1718 33012G18KT P6SM BKN100
     FM170100 25007KT P6SM VCSH FEW100
     FM171500 28012G18KT P6SM SCT100=

USA.gov is the U.S. government's official web portal to all federal, state and local government web resources and services.